Grant County, OR

7:29 AM PDT on September 18, 2019 (GMT -0700)
Grant County Regional

Weather History for KGCD - August, 2019

Change the Weather History Date:

Saturday, August 24, 2019

  Actual Average (KBNO) Record (KBNO)
Temperature  
Mean Temperature 71 °F -  
Max Temperature 89 °F 81 °F 96 °F (1988)
Min Temperature 54 °F 42 °F 24 °F (1992)
Cooling Degree Days 6    
Growing Degree Days 21 (Base 50)    
Moisture  
Dew Point 37 °F    
Average Humidity 30    
Maximum Humidity 52    
Minimum Humidity 13    
Precipitation  
Precipitation 0.00 in - - ()
Sea Level Pressure  
Sea Level Pressure 29.99 in    
Wind  
Wind Speed 7 mph (NW)    
Max Wind Speed 14 mph    
Max Gust Speed 20 mph    
Visibility 10 miles    
Events      
Averages and records for this station are not official NWS values.
T = Trace of Precipitation, MM = Missing Value Source: NWS Daily Summary

Daily Weather History Graph

Daily Weather History Graph

Search for Another Location

Airport or City:

Astronomy

Aug. 24, 2019 Rise Set
Actual Time 6:09 AM PDT 7:46 PM PDT
Civil Twilight 5:38 AM PDT 8:16 PM PDT
Nautical Twilight 5:01 AM PDT 8:54 PM PDT
Astronomical Twilight 4:21 AM PDT 9:33 PM PDT
Moon 12:00 AM PDT (8/24) 3:14 PM PDT (8/24)
Length of Visible Light 14h 38m
Length of Day
13h 37m
Last Quarter, 38% of the Moon is Illuminated
Aug 24
Last Quarter
Aug 30
New
Sep 5
First Quarter
Sep 13
Full
Sep 21
Last Quarter

Hourly Weather History & Observations

Time (PDT) Temp. Dew Point Humidity Pressure Visibility Wind Dir Wind Speed Gust Speed Precip Events Conditions
12:15 AM 65.1 °F 34.0 °F 31% 29.96 in 10.0 mi SE 9.2 mph - N/A   Clear
12:35 AM 65.8 °F 33.3 °F 30% 29.95 in 10.0 mi ESE 9.2 mph - N/A   Clear
12:55 AM 63.5 °F 34.0 °F 33% 29.96 in 10.0 mi ESE 8.1 mph - N/A   Clear
1:15 AM 63.0 °F 33.4 °F 33% 29.96 in 10.0 mi ESE 10.4 mph - N/A   Clear
1:35 AM 62.1 °F 33.6 °F 34% 29.97 in 10.0 mi ESE 8.1 mph - N/A   Clear
1:55 AM 61.3 °F 34.0 °F 36% 29.97 in 10.0 mi ESE 6.9 mph - N/A   Clear
2:15 AM 61.7 °F 33.8 °F 35% 29.97 in 10.0 mi ESE 8.1 mph - N/A   Clear
2:35 AM 61.9 °F 33.8 °F 35% 29.97 in 10.0 mi SE 9.2 mph - N/A   Clear
2:55 AM 62.2 °F 33.8 °F 35% 29.97 in 10.0 mi SE 8.1 mph - N/A   Clear
3:15 AM 62.8 °F 33.4 °F 33% 29.96 in 10.0 mi ESE 4.6 mph - N/A   Clear
3:35 AM 59.9 °F 33.8 °F 38% 29.96 in 10.0 mi ESE 9.2 mph - N/A   Clear
3:55 AM 59.4 °F 33.8 °F 38% 29.97 in 10.0 mi SE 9.2 mph - N/A   Clear
4:15 AM 57.6 °F 34.0 °F 41% 29.97 in 10.0 mi SE 5.8 mph - N/A   Clear
4:35 AM 57.7 °F 34.3 °F 41% 29.97 in 10.0 mi Calm Calm - N/A   Clear
4:55 AM 59.4 °F 35.2 °F 40% 29.98 in 10.0 mi Calm Calm - N/A   Clear
5:15 AM 56.7 °F 36.5 °F 47% 29.98 in 10.0 mi WNW 3.5 mph - N/A   Clear
5:35 AM 55.9 °F 36.5 °F 48% 29.99 in 10.0 mi WNW 4.6 mph - N/A   Clear
5:55 AM 56.8 °F 35.8 °F 45% 29.98 in 10.0 mi Calm Calm - N/A   Clear
6:15 AM 54.5 °F 37.0 °F 52% 29.98 in 10.0 mi Calm Calm - N/A   Clear
6:55 AM 55.6 °F 37.0 °F 50% 30.00 in 10.0 mi East 4.6 mph - N/A   Clear
7:15 AM 57.0 °F 36.7 °F 47% 30.01 in 10.0 mi East 4.6 mph - N/A   Clear
7:35 AM 58.1 °F 36.7 °F 45% 30.02 in 10.0 mi SE 5.8 mph - N/A   Clear
7:55 AM 61.0 °F 36.5 °F 40% 30.01 in 10.0 mi ESE 5.8 mph - N/A   Clear
8:15 AM 61.9 °F 36.5 °F 39% 30.03 in 10.0 mi East 6.9 mph - N/A   Clear
8:35 AM 62.6 °F 36.5 °F 38% 30.02 in 10.0 mi ESE 8.1 mph - N/A   Clear
8:55 AM 66.2 °F 37.2 °F 34% 30.01 in 10.0 mi East 4.6 mph - N/A   Clear
9:15 AM 67.5 °F 38.1 °F 34% 30.01 in 10.0 mi ENE 4.6 mph - N/A   Clear
9:35 AM 68.9 °F 38.3 °F 33% 30.01 in 10.0 mi Calm Calm - N/A   Clear
9:55 AM 71.6 °F 39.6 °F 31% 30.02 in 10.0 mi NNW 3.5 mph - N/A   Clear
10:15 AM 72.3 °F 39.4 °F 30% 30.01 in 10.0 mi Calm Calm - N/A   Clear
10:35 AM 75.0 °F 39.7 °F 28% 30.01 in 10.0 mi West 4.6 mph - N/A   Clear
10:55 AM 75.7 °F 40.3 °F 28% 30.01 in 10.0 mi NW 6.9 mph - N/A   Clear
11:15 AM 77.0 °F 39.9 °F 26% 30.01 in 10.0 mi West 4.6 mph - N/A   Clear
11:35 AM 78.4 °F 39.4 °F 25% 30.00 in 10.0 mi WNW 5.8 mph - N/A   Clear
11:55 AM 80.1 °F 38.3 °F 22% 30.00 in 10.0 mi NW 6.9 mph - N/A   Clear
12:15 PM 81.3 °F 38.1 °F 21% 29.99 in 10.0 mi WNW 6.9 mph - N/A   Clear
12:35 PM 82.0 °F 37.2 °F 20% 29.98 in 10.0 mi West 4.6 mph - N/A   Clear
12:55 PM 83.5 °F 33.3 °F 16% 29.98 in 10.0 mi WNW 9.2 mph - N/A   Clear
1:15 PM 84.2 °F 34.2 °F 17% 29.98 in 10.0 mi NNW 4.6 mph - N/A   Clear
1:35 PM 84.2 °F 33.8 °F 16% 29.97 in 10.0 mi NW 4.6 mph - N/A   Clear
1:55 PM 86.7 °F 33.8 °F 15% 29.97 in 10.0 mi WNW 10.4 mph 17.3 mph N/A   Clear
2:15 PM 86.9 °F 32.7 °F 14% 29.96 in 10.0 mi NW 9.2 mph - N/A   Clear
2:55 PM 88.2 °F 33.6 °F 14% 29.96 in 10.0 mi NW 6.9 mph - N/A   Clear
3:15 PM 88.3 °F 32.0 °F 13% 29.95 in 10.0 mi WNW 13.8 mph 19.6 mph N/A   Clear
3:35 PM 88.9 °F 31.8 °F 13% 29.96 in 10.0 mi WNW 13.8 mph 19.6 mph N/A   Clear
3:55 PM 88.7 °F 32.2 °F 13% 29.95 in 10.0 mi WNW 12.7 mph 17.3 mph N/A   Clear
4:15 PM 88.3 °F 32.7 °F 14% 29.95 in 10.0 mi NW 6.9 mph - N/A   Clear
4:35 PM 87.1 °F 33.4 °F 15% 29.95 in 10.0 mi West 10.4 mph - N/A   Clear
4:55 PM 88.2 °F 36.3 °F 16% 29.95 in 10.0 mi NW 10.4 mph - N/A   Clear
5:15 PM 86.2 °F 35.8 °F 17% 29.96 in 10.0 mi NW 13.8 mph - N/A   Clear
5:35 PM 85.1 °F 36.0 °F 17% 29.96 in 10.0 mi NW 13.8 mph 18.4 mph N/A   Clear
5:55 PM 84.4 °F 36.7 °F 18% 29.97 in 10.0 mi NW 12.7 mph 17.3 mph N/A   Clear
6:15 PM 83.7 °F 36.9 °F 19% 29.97 in 10.0 mi NNW 13.8 mph 19.6 mph N/A   Clear
6:35 PM 82.6 °F 36.9 °F 19% 29.97 in 10.0 mi NW 9.2 mph - N/A   Clear
6:55 PM 81.5 °F 36.5 °F 20% 29.98 in 10.0 mi NW 6.9 mph - N/A   Clear
7:15 PM 79.5 °F 36.9 °F 22% 29.98 in 10.0 mi NW 6.9 mph - N/A   Clear
7:35 PM 77.7 °F 38.3 °F 24% 29.98 in 10.0 mi WNW 6.9 mph - N/A   Clear
7:55 PM 75.4 °F 37.8 °F 26% 29.98 in 10.0 mi West 6.9 mph - N/A   Clear
8:15 PM 73.9 °F 37.2 °F 26% 29.98 in 10.0 mi West 8.1 mph - N/A   Clear
8:35 PM 72.1 °F 37.4 °F 28% 29.99 in 10.0 mi SW 5.8 mph - N/A   Clear
8:55 PM 71.1 °F 37.4 °F 29% 30.00 in 10.0 mi West 4.6 mph - N/A   Clear
9:15 PM 70.9 °F 37.9 °F 30% 30.01 in 10.0 mi Calm Calm - N/A   Clear
9:35 PM 71.1 °F 40.6 °F 33% 30.01 in 10.0 mi NW 4.6 mph - N/A   Clear
9:55 PM 70.3 °F 41.9 °F 36% 30.02 in 10.0 mi NNW 3.5 mph - N/A   Clear
10:15 PM 68.2 °F 42.4 °F 39% 30.02 in 10.0 mi NNW 4.6 mph - N/A   Clear
10:35 PM 68.0 °F 43.3 °F 41% 30.03 in 10.0 mi North 3.5 mph - N/A   Clear
10:55 PM 66.0 °F 43.5 °F 44% 30.02 in 10.0 mi NW 6.9 mph - N/A   Clear
11:15 PM 65.7 °F 43.9 °F 45% 30.03 in 10.0 mi Calm Calm - N/A   Clear
11:35 PM 66.2 °F 43.0 °F 43% 30.03 in 10.0 mi West 8.1 mph - N/A   Clear
11:55 PM 65.3 °F 43.5 °F 45% 30.04 in 10.0 mi WNW 5.8 mph - N/A   Clear